sensor_id;sensor_type;location;lat;lon;timestamp;P1;durP1;ratioP1;P2;durP2;ratioP2
5285;SDS011;2665;53.112;7.358;2023-06-04T00:00:51;4.20;;;1.77;;
5285;SDS011;2665;53.112;7.358;2023-06-04T00:03:17;3.40;;;1.90;;
5285;SDS011;2665;53.112;7.358;2023-06-04T00:05:43;3.07;;;1.90;;
5285;SDS011;2665;53.112;7.358;2023-06-04T00:08:09;3.53;;;1.70;;
5285;SDS011;2665;53.112;7.358;2023-06-04T00:10:35;8.90;;;2.57;;
5285;SDS011;2665;53.112;7.358;2023-06-04T00:13:04;8.90;;;2.10;;
5285;SDS011;2665;53.112;7.358;2023-06-04T00:15:30;3.80;;;2.27;;
5285;SDS011;2665;53.112;7.358;2023-06-04T00:17:56;5.07;;;1.80;;
5285;SDS011;2665;53.112;7.358;2023-06-04T00:20:22;4.33;;;2.13;;
5285;SDS011;2665;53.112;7.358;2023-06-04T00:22:48;3.30;;;2.10;;
5285;SDS011;2665;53.112;7.358;2023-06-04T00:25:14;3.80;;;2.10;;
5285;SDS011;2665;53.112;7.358;2023-06-04T00:27:41;6.90;;;2.10;;
5285;SDS011;2665;53.112;7.358;2023-06-04T00:30:07;3.47;;;1.80;;
5285;SDS011;2665;53.112;7.358;2023-06-04T00:32:33;3.47;;;1.60;;
5285;SDS011;2665;53.112;7.358;2023-06-04T00:34:59;4.33;;;2.00;;
5285;SDS011;2665;53.112;7.358;2023-06-04T00:37:27;6.90;;;2.07;;
5285;SDS011;2665;53.112;7.358;2023-06-04T00:39:53;5.40;;;2.13;;
5285;SDS011;2665;53.112;7.358;2023-06-04T00:42:19;5.03;;;2.03;;
5285;SDS011;2665;53.112;7.358;2023-06-04T00:44:45;2.60;;;1.50;;
5285;SDS011;2665;53.112;7.358;2023-06-04T00:47:12;6.50;;;2.40;;
5285;SDS011;2665;53.112;7.358;2023-06-04T00:49:39;7.63;;;2.13;;
5285;SDS011;2665;53.112;7.358;2023-06-04T00:52:06;4.67;;;2.13;;
5285;SDS011;2665;53.112;7.358;2023-06-04T00:54:33;3.90;;;1.67;;
5285;SDS011;2665;53.112;7.358;2023-06-04T00:57:00;5.70;;;1.80;;
5285;SDS011;2665;53.112;7.358;2023-06-04T00:59:28;7.97;;;2.20;;
5285;SDS011;2665;53.112;7.358;2023-06-04T01:02:06;7.63;;;2.03;;
5285;SDS011;2665;53.112;7.358;2023-06-04T01:04:50;3.20;;;1.47;;
5285;SDS011;2665;53.112;7.358;2023-06-04T01:07:17;7.20;;;2.10;;
5285;SDS011;2665;53.112;7.358;2023-06-04T01:09:44;3.40;;;1.40;;
5285;SDS011;2665;53.112;7.358;2023-06-04T01:12:11;5.80;;;2.37;;
5285;SDS011;2665;53.112;7.358;2023-06-04T01:14:37;4.00;;;1.70;;
5285;SDS011;2665;53.112;7.358;2023-06-04T01:27:49;4.33;;;1.73;;
5285;SDS011;2665;53.112;7.358;2023-06-04T01:30:17;4.73;;;1.70;;
5285;SDS011;2665;53.112;7.358;2023-06-04T01:32:44;3.93;;;1.83;;
5285;SDS011;2665;53.112;7.358;2023-06-04T01:35:11;4.53;;;1.93;;
5285;SDS011;2665;53.112;7.358;2023-06-04T01:37:38;4.23;;;2.03;;
5285;SDS011;2665;53.112;7.358;2023-06-04T01:40:04;3.13;;;1.83;;
5285;SDS011;2665;53.112;7.358;2023-06-04T01:42:30;3.00;;;1.97;;
5285;SDS011;2665;53.112;7.358;2023-06-04T01:44:56;5.40;;;2.37;;
5285;SDS011;2665;53.112;7.358;2023-06-04T01:47:22;3.87;;;2.20;;
5285;SDS011;2665;53.112;7.358;2023-06-04T01:49:48;5.30;;;2.70;;
5285;SDS011;2665;53.112;7.358;2023-06-04T01:52:15;5.93;;;3.20;;
5285;SDS011;2665;53.112;7.358;2023-06-04T01:54:41;5.83;;;2.77;;
5285;SDS011;2665;53.112;7.358;2023-06-04T01:57:08;6.00;;;2.03;;
5285;SDS011;2665;53.112;7.358;2023-06-04T01:59:36;3.17;;;2.33;;
5285;SDS011;2665;53.112;7.358;2023-06-04T02:02:03;4.67;;;2.50;;
5285;SDS011;2665;53.112;7.358;2023-06-04T02:04:30;9.03;;;3.00;;
5285;SDS011;2665;53.112;7.358;2023-06-04T02:06:56;6.67;;;2.90;;
5285;SDS011;2665;53.112;7.358;2023-06-04T02:09:24;5.97;;;2.77;;
5285;SDS011;2665;53.112;7.358;2023-06-04T02:11:51;5.60;;;2.97;;
5285;SDS011;2665;53.112;7.358;2023-06-04T02:14:17;2.90;;;2.10;;
5285;SDS011;2665;53.112;7.358;2023-06-04T02:16:43;3.60;;;2.17;;
5285;SDS011;2665;53.112;7.358;2023-06-04T02:19:09;2.77;;;1.97;;
5285;SDS011;2665;53.112;7.358;2023-06-04T02:21:37;5.10;;;2.10;;
5285;SDS011;2665;53.112;7.358;2023-06-04T02:24:03;8.50;;;2.40;;
5285;SDS011;2665;53.112;7.358;2023-06-04T02:26:30;3.53;;;2.37;;
5285;SDS011;2665;53.112;7.358;2023-06-04T02:28:56;3.67;;;2.30;;
5285;SDS011;2665;53.112;7.358;2023-06-04T02:31:22;4.33;;;2.63;;
5285;SDS011;2665;53.112;7.358;2023-06-04T02:33:48;3.20;;;1.70;;
5285;SDS011;2665;53.112;7.358;2023-06-04T02:36:14;3.40;;;2.90;;
5285;SDS011;2665;53.112;7.358;2023-06-04T02:38:42;5.13;;;2.47;;
5285;SDS011;2665;53.112;7.358;2023-06-04T02:41:08;4.83;;;3.07;;
5285;SDS011;2665;53.112;7.358;2023-06-04T02:43:34;7.03;;;2.17;;
5285;SDS011;2665;53.112;7.358;2023-06-04T02:46:00;5.10;;;2.30;;
5285;SDS011;2665;53.112;7.358;2023-06-04T02:48:26;2.87;;;1.77;;
5285;SDS011;2665;53.112;7.358;2023-06-04T02:50:52;4.83;;;2.30;;
5285;SDS011;2665;53.112;7.358;2023-06-04T02:53:18;2.90;;;1.90;;
5285;SDS011;2665;53.112;7.358;2023-06-04T02:55:45;2.80;;;1.70;;
5285;SDS011;2665;53.112;7.358;2023-06-04T02:58:12;3.10;;;1.70;;
5285;SDS011;2665;53.112;7.358;2023-06-04T03:00:39;2.47;;;1.60;;
5285;SDS011;2665;53.112;7.358;2023-06-04T03:03:05;3.50;;;2.07;;
5285;SDS011;2665;53.112;7.358;2023-06-04T03:05:31;3.70;;;1.93;;
5285;SDS011;2665;53.112;7.358;2023-06-04T03:07:58;3.00;;;1.80;;
5285;SDS011;2665;53.112;7.358;2023-06-04T03:10:24;3.47;;;1.80;;
5285;SDS011;2665;53.112;7.358;2023-06-04T03:12:50;2.43;;;1.67;;
5285;SDS011;2665;53.112;7.358;2023-06-04T03:15:16;2.93;;;1.70;;
5285;SDS011;2665;53.112;7.358;2023-06-04T03:17:42;3.43;;;1.60;;
5285;SDS011;2665;53.112;7.358;2023-06-04T03:20:09;3.50;;;2.10;;
5285;SDS011;2665;53.112;7.358;2023-06-04T03:22:35;5.23;;;2.00;;
5285;SDS011;2665;53.112;7.358;2023-06-04T03:25:02;3.90;;;2.23;;
5285;SDS011;2665;53.112;7.358;2023-06-04T03:27:28;3.90;;;1.90;;
5285;SDS011;2665;53.112;7.358;2023-06-04T03:29:54;6.70;;;1.60;;
5285;SDS011;2665;53.112;7.358;2023-06-04T03:32:20;2.63;;;1.63;;
5285;SDS011;2665;53.112;7.358;2023-06-04T03:34:46;7.43;;;2.20;;
5285;SDS011;2665;53.112;7.358;2023-06-04T03:37:12;2.60;;;1.30;;
5285;SDS011;2665;53.112;7.358;2023-06-04T03:39:38;2.70;;;1.77;;
5285;SDS011;2665;53.112;7.358;2023-06-04T03:42:04;4.17;;;1.87;;
5285;SDS011;2665;53.112;7.358;2023-06-04T03:44:30;5.00;;;1.73;;
5285;SDS011;2665;53.112;7.358;2023-06-04T03:46:56;8.13;;;1.80;;
5285;SDS011;2665;53.112;7.358;2023-06-04T03:49:22;2.40;;;1.37;;
5285;SDS011;2665;53.112;7.358;2023-06-04T03:51:49;5.77;;;2.27;;
5285;SDS011;2665;53.112;7.358;2023-06-04T03:54:15;4.80;;;1.87;;
5285;SDS011;2665;53.112;7.358;2023-06-04T03:56:42;3.03;;;1.70;;
5285;SDS011;2665;53.112;7.358;2023-06-04T03:59:08;2.97;;;1.77;;
5285;SDS011;2665;53.112;7.358;2023-06-04T04:01:34;2.57;;;1.73;;
5285;SDS011;2665;53.112;7.358;2023-06-04T04:04:00;3.13;;;1.87;;
5285;SDS011;2665;53.112;7.358;2023-06-04T04:06:27;2.97;;;2.13;;
5285;SDS011;2665;53.112;7.358;2023-06-04T04:08:53;3.70;;;2.00;;
5285;SDS011;2665;53.112;7.358;2023-06-04T04:11:19;3.00;;;1.87;;
5285;SDS011;2665;53.112;7.358;2023-06-04T04:13:45;3.50;;;1.80;;
5285;SDS011;2665;53.112;7.358;2023-06-04T04:16:11;2.70;;;1.30;;
5285;SDS011;2665;53.112;7.358;2023-06-04T04:18:37;3.60;;;1.47;;
5285;SDS011;2665;53.112;7.358;2023-06-04T04:21:04;2.80;;;1.80;;
5285;SDS011;2665;53.112;7.358;2023-06-04T04:23:30;3.50;;;2.17;;
5285;SDS011;2665;53.112;7.358;2023-06-04T04:26:00;3.27;;;1.83;;
5285;SDS011;2665;53.112;7.358;2023-06-04T04:28:27;5.53;;;2.83;;
5285;SDS011;2665;53.112;7.358;2023-06-04T04:30:53;3.53;;;2.00;;
5285;SDS011;2665;53.112;7.358;2023-06-04T04:33:19;3.90;;;2.37;;
5285;SDS011;2665;53.112;7.358;2023-06-04T04:35:45;4.80;;;3.17;;
5285;SDS011;2665;53.112;7.358;2023-06-04T04:38:13;3.80;;;2.37;;
5285;SDS011;2665;53.112;7.358;2023-06-04T04:40:42;6.00;;;2.47;;
5285;SDS011;2665;53.112;7.358;2023-06-04T04:43:08;5.17;;;2.73;;
5285;SDS011;2665;53.112;7.358;2023-06-04T04:45:34;7.03;;;3.03;;
5285;SDS011;2665;53.112;7.358;2023-06-04T04:48:00;3.73;;;2.70;;
5285;SDS011;2665;53.112;7.358;2023-06-04T04:50:26;4.00;;;2.53;;
5285;SDS011;2665;53.112;7.358;2023-06-04T04:52:52;5.20;;;3.43;;
5285;SDS011;2665;53.112;7.358;2023-06-04T04:55:18;4.70;;;2.30;;
5285;SDS011;2665;53.112;7.358;2023-06-04T04:57:44;4.07;;;3.10;;
5285;SDS011;2665;53.112;7.358;2023-06-04T05:00:10;5.30;;;3.23;;
5285;SDS011;2665;53.112;7.358;2023-06-04T05:02:37;6.03;;;3.27;;
5285;SDS011;2665;53.112;7.358;2023-06-04T05:05:03;11.10;;;3.40;;
5285;SDS011;2665;53.112;7.358;2023-06-04T05:07:29;5.63;;;3.80;;
5285;SDS011;2665;53.112;7.358;2023-06-04T05:09:55;5.10;;;3.03;;
5285;SDS011;2665;53.112;7.358;2023-06-04T05:12:24;5.60;;;3.60;;
5285;SDS011;2665;53.112;7.358;2023-06-04T05:14:51;7.23;;;5.10;;
5285;SDS011;2665;53.112;7.358;2023-06-04T05:17:17;7.53;;;4.50;;
5285;SDS011;2665;53.112;7.358;2023-06-04T05:19:46;9.30;;;3.53;;
5285;SDS011;2665;53.112;7.358;2023-06-04T05:22:12;6.87;;;3.97;;
5285;SDS011;2665;53.112;7.358;2023-06-04T05:24:41;6.93;;;3.50;;
5285;SDS011;2665;53.112;7.358;2023-06-04T05:27:07;11.07;;;3.93;;
5285;SDS011;2665;53.112;7.358;2023-06-04T05:29:34;7.03;;;3.70;;
5285;SDS011;2665;53.112;7.358;2023-06-04T05:32:01;9.37;;;3.63;;
5285;SDS011;2665;53.112;7.358;2023-06-04T05:34:27;8.23;;;3.43;;
5285;SDS011;2665;53.112;7.358;2023-06-04T05:36:54;5.27;;;3.27;;
5285;SDS011;2665;53.112;7.358;2023-06-04T05:39:22;11.43;;;3.80;;
5285;SDS011;2665;53.112;7.358;2023-06-04T05:41:49;4.10;;;2.50;;
5285;SDS011;2665;53.112;7.358;2023-06-04T05:44:15;8.20;;;3.43;;
5285;SDS011;2665;53.112;7.358;2023-06-04T05:46:41;6.67;;;3.73;;
5285;SDS011;2665;53.112;7.358;2023-06-04T05:49:07;7.97;;;3.07;;
5285;SDS011;2665;53.112;7.358;2023-06-04T05:51:33;3.30;;;2.50;;
5285;SDS011;2665;53.112;7.358;2023-06-04T05:54:00;5.67;;;3.53;;
5285;SDS011;2665;53.112;7.358;2023-06-04T05:56:26;4.80;;;2.80;;
5285;SDS011;2665;53.112;7.358;2023-06-04T05:58:53;7.80;;;3.33;;
5285;SDS011;2665;53.112;7.358;2023-06-04T06:01:19;6.33;;;3.23;;
5285;SDS011;2665;53.112;7.358;2023-06-04T06:03:45;8.07;;;3.20;;
5285;SDS011;2665;53.112;7.358;2023-06-04T06:06:11;6.97;;;2.87;;
5285;SDS011;2665;53.112;7.358;2023-06-04T06:08:37;5.73;;;3.07;;
5285;SDS011;2665;53.112;7.358;2023-06-04T06:11:03;6.73;;;2.90;;
5285;SDS011;2665;53.112;7.358;2023-06-04T06:13:30;6.93;;;3.50;;
5285;SDS011;2665;53.112;7.358;2023-06-04T06:15:56;5.43;;;2.60;;
5285;SDS011;2665;53.112;7.358;2023-06-04T06:18:22;9.60;;;3.37;;
5285;SDS011;2665;53.112;7.358;2023-06-04T06:20:48;4.67;;;2.80;;
5285;SDS011;2665;53.112;7.358;2023-06-04T06:23:15;5.17;;;3.67;;
5285;SDS011;2665;53.112;7.358;2023-06-04T06:25:41;7.70;;;2.63;;
5285;SDS011;2665;53.112;7.358;2023-06-04T06:28:10;5.33;;;2.63;;
5285;SDS011;2665;53.112;7.358;2023-06-04T06:30:36;3.67;;;2.53;;
5285;SDS011;2665;53.112;7.358;2023-06-04T06:33:02;5.60;;;2.50;;
5285;SDS011;2665;53.112;7.358;2023-06-04T06:35:28;8.77;;;2.87;;
5285;SDS011;2665;53.112;7.358;2023-06-04T06:37:54;4.63;;;2.40;;
5285;SDS011;2665;53.112;7.358;2023-06-04T06:40:20;4.30;;;2.90;;
5285;SDS011;2665;53.112;7.358;2023-06-04T06:42:50;7.63;;;2.27;;
5285;SDS011;2665;53.112;7.358;2023-06-04T06:45:16;5.53;;;2.40;;
5285;SDS011;2665;53.112;7.358;2023-06-04T06:47:43;7.57;;;2.60;;
5285;SDS011;2665;53.112;7.358;2023-06-04T06:50:09;4.73;;;1.90;;
5285;SDS011;2665;53.112;7.358;2023-06-04T06:52:35;4.63;;;2.30;;
5285;SDS011;2665;53.112;7.358;2023-06-04T06:55:03;6.47;;;2.47;;
5285;SDS011;2665;53.112;7.358;2023-06-04T06:57:29;12.37;;;2.70;;
5285;SDS011;2665;53.112;7.358;2023-06-04T06:59:55;8.77;;;2.73;;
5285;SDS011;2665;53.112;7.358;2023-06-04T07:02:21;8.00;;;2.90;;
5285;SDS011;2665;53.112;7.358;2023-06-04T07:04:47;6.80;;;2.90;;
5285;SDS011;2665;53.112;7.358;2023-06-04T07:07:14;7.13;;;1.80;;
5285;SDS011;2665;53.112;7.358;2023-06-04T07:09:40;8.87;;;2.70;;
5285;SDS011;2665;53.112;7.358;2023-06-04T07:12:06;6.20;;;1.90;;
5285;SDS011;2665;53.112;7.358;2023-06-04T07:14:32;6.97;;;1.93;;
5285;SDS011;2665;53.112;7.358;2023-06-04T07:16:58;10.93;;;2.37;;
5285;SDS011;2665;53.112;7.358;2023-06-04T07:19:24;3.90;;;1.87;;
5285;SDS011;2665;53.112;7.358;2023-06-04T07:21:53;3.30;;;1.93;;
5285;SDS011;2665;53.112;7.358;2023-06-04T07:24:19;3.60;;;2.10;;
5285;SDS011;2665;53.112;7.358;2023-06-04T07:26:46;5.70;;;2.53;;
5285;SDS011;2665;53.112;7.358;2023-06-04T07:29:12;6.00;;;2.10;;
5285;SDS011;2665;53.112;7.358;2023-06-04T07:31:40;5.37;;;1.77;;
5285;SDS011;2665;53.112;7.358;2023-06-04T07:34:06;5.50;;;1.93;;
5285;SDS011;2665;53.112;7.358;2023-06-04T07:36:32;5.37;;;2.10;;
5285;SDS011;2665;53.112;7.358;2023-06-04T07:38:59;7.93;;;2.00;;
5285;SDS011;2665;53.112;7.358;2023-06-04T07:41:25;3.50;;;1.70;;
5285;SDS011;2665;53.112;7.358;2023-06-04T07:43:51;6.40;;;1.70;;
5285;SDS011;2665;53.112;7.358;2023-06-04T07:46:17;3.87;;;1.43;;
5285;SDS011;2665;53.112;7.358;2023-06-04T07:48:44;7.20;;;1.60;;
5285;SDS011;2665;53.112;7.358;2023-06-04T07:51:10;3.40;;;1.50;;
5285;SDS011;2665;53.112;7.358;2023-06-04T07:53:36;7.30;;;1.47;;
5285;SDS011;2665;53.112;7.358;2023-06-04T07:56:06;4.97;;;1.07;;
5285;SDS011;2665;53.112;7.358;2023-06-04T07:58:32;4.80;;;1.53;;
5285;SDS011;2665;53.112;7.358;2023-06-04T08:00:58;6.20;;;1.50;;
5285;SDS011;2665;53.112;7.358;2023-06-04T08:03:24;4.90;;;1.30;;
5285;SDS011;2665;53.112;7.358;2023-06-04T08:05:50;4.60;;;1.20;;
5285;SDS011;2665;53.112;7.358;2023-06-04T08:08:16;2.67;;;1.10;;
5285;SDS011;2665;53.112;7.358;2023-06-04T08:10:42;5.13;;;1.20;;
5285;SDS011;2665;53.112;7.358;2023-06-04T08:13:08;5.40;;;1.60;;
5285;SDS011;2665;53.112;7.358;2023-06-04T08:15:35;2.50;;;0.97;;
5285;SDS011;2665;53.112;7.358;2023-06-04T08:18:01;3.70;;;1.53;;
5285;SDS011;2665;53.112;7.358;2023-06-04T08:20:27;4.80;;;1.00;;
5285;SDS011;2665;53.112;7.358;2023-06-04T08:22:53;6.80;;;1.30;;
5285;SDS011;2665;53.112;7.358;2023-06-04T08:25:19;5.50;;;1.63;;
5285;SDS011;2665;53.112;7.358;2023-06-04T08:27:45;3.50;;;1.17;;
5285;SDS011;2665;53.112;7.358;2023-06-04T08:30:12;2.90;;;1.30;;
5285;SDS011;2665;53.112;7.358;2023-06-04T08:32:38;3.90;;;1.30;;
5285;SDS011;2665;53.112;7.358;2023-06-04T08:35:06;5.30;;;1.30;;
5285;SDS011;2665;53.112;7.358;2023-06-04T08:37:32;8.93;;;1.60;;
5285;SDS011;2665;53.112;7.358;2023-06-04T08:39:58;6.13;;;1.53;;
5285;SDS011;2665;53.112;7.358;2023-06-04T08:42:31;2.90;;;1.37;;
5285;SDS011;2665;53.112;7.358;2023-06-04T08:44:57;3.10;;;1.00;;
5285;SDS011;2665;53.112;7.358;2023-06-04T08:47:24;2.80;;;1.20;;
5285;SDS011;2665;53.112;7.358;2023-06-04T08:49:51;3.63;;;1.10;;
5285;SDS011;2665;53.112;7.358;2023-06-04T08:52:17;3.90;;;1.00;;
5285;SDS011;2665;53.112;7.358;2023-06-04T08:54:49;4.37;;;1.00;;
5285;SDS011;2665;53.112;7.358;2023-06-04T08:57:19;5.30;;;1.63;;
5285;SDS011;2665;53.112;7.358;2023-06-04T08:59:46;4.30;;;1.77;;
5285;SDS011;2665;53.112;7.358;2023-06-04T09:02:13;3.73;;;1.30;;
5285;SDS011;2665;53.112;7.358;2023-06-04T09:04:40;3.73;;;1.17;;
5285;SDS011;2665;53.112;7.358;2023-06-04T09:07:06;2.73;;;0.90;;
5285;SDS011;2665;53.112;7.358;2023-06-04T09:09:37;3.00;;;1.23;;
5285;SDS011;2665;53.112;7.358;2023-06-04T09:12:04;10.10;;;1.20;;
5285;SDS011;2665;53.112;7.358;2023-06-04T09:14:31;2.60;;;1.10;;
5285;SDS011;2665;53.112;7.358;2023-06-04T09:16:57;4.27;;;1.67;;
5285;SDS011;2665;53.112;7.358;2023-06-04T09:19:24;4.07;;;1.70;;
5285;SDS011;2665;53.112;7.358;2023-06-04T09:21:51;3.40;;;0.90;;
5285;SDS011;2665;53.112;7.358;2023-06-04T09:24:21;2.00;;;1.00;;
5285;SDS011;2665;53.112;7.358;2023-06-04T09:26:47;3.10;;;1.43;;
5285;SDS011;2665;53.112;7.358;2023-06-04T09:29:14;3.40;;;1.33;;
5285;SDS011;2665;53.112;7.358;2023-06-04T09:31:40;3.00;;;1.10;;
5285;SDS011;2665;53.112;7.358;2023-06-04T09:34:07;3.33;;;1.10;;
5285;SDS011;2665;53.112;7.358;2023-06-04T09:36:33;7.30;;;1.40;;
5285;SDS011;2665;53.112;7.358;2023-06-04T09:39:00;2.67;;;1.00;;
5285;SDS011;2665;53.112;7.358;2023-06-04T09:41:27;4.40;;;1.20;;
5285;SDS011;2665;53.112;7.358;2023-06-04T09:44:00;3.83;;;1.20;;
5285;SDS011;2665;53.112;7.358;2023-06-04T09:46:31;2.87;;;1.20;;
5285;SDS011;2665;53.112;7.358;2023-06-04T09:49:03;3.27;;;1.17;;
5285;SDS011;2665;53.112;7.358;2023-06-04T09:51:30;5.53;;;1.17;;
5285;SDS011;2665;53.112;7.358;2023-06-04T09:53:57;3.07;;;1.13;;
5285;SDS011;2665;53.112;7.358;2023-06-04T09:56:23;2.17;;;0.90;;
5285;SDS011;2665;53.112;7.358;2023-06-04T09:58:53;2.10;;;1.10;;
5285;SDS011;2665;53.112;7.358;2023-06-04T10:01:19;3.53;;;1.00;;
5285;SDS011;2665;53.112;7.358;2023-06-04T10:03:50;2.57;;;0.90;;
5285;SDS011;2665;53.112;7.358;2023-06-04T10:06:18;3.33;;;1.17;;
5285;SDS011;2665;53.112;7.358;2023-06-04T10:08:45;2.40;;;0.77;;
5285;SDS011;2665;53.112;7.358;2023-06-04T10:11:12;1.83;;;0.90;;
5285;SDS011;2665;53.112;7.358;2023-06-04T10:13:48;5.00;;;1.10;;
5285;SDS011;2665;53.112;7.358;2023-06-04T10:16:14;3.20;;;1.00;;
5285;SDS011;2665;53.112;7.358;2023-06-04T10:18:41;2.40;;;0.80;;
5285;SDS011;2665;53.112;7.358;2023-06-04T10:21:07;5.80;;;1.03;;
5285;SDS011;2665;53.112;7.358;2023-06-04T10:23:34;2.27;;;1.10;;
5285;SDS011;2665;53.112;7.358;2023-06-04T10:26:00;3.10;;;1.10;;
5285;SDS011;2665;53.112;7.358;2023-06-04T10:28:27;5.23;;;1.00;;
5285;SDS011;2665;53.112;7.358;2023-06-04T10:30:53;1.90;;;0.67;;
5285;SDS011;2665;53.112;7.358;2023-06-04T10:33:20;5.10;;;1.30;;
5285;SDS011;2665;53.112;7.358;2023-06-04T10:35:49;3.30;;;1.13;;
5285;SDS011;2665;53.112;7.358;2023-06-04T10:38:15;2.43;;;1.27;;
5285;SDS011;2665;53.112;7.358;2023-06-04T10:40:43;2.40;;;0.73;;
5285;SDS011;2665;53.112;7.358;2023-06-04T10:43:12;1.70;;;0.90;;
5285;SDS011;2665;53.112;7.358;2023-06-04T10:45:41;3.20;;;0.90;;
5285;SDS011;2665;53.112;7.358;2023-06-04T10:48:07;4.20;;;2.70;;
5285;SDS011;2665;53.112;7.358;2023-06-04T10:50:35;2.47;;;0.90;;
5285;SDS011;2665;53.112;7.358;2023-06-04T10:53:12;3.70;;;1.03;;
5285;SDS011;2665;53.112;7.358;2023-06-04T10:55:44;2.57;;;0.90;;
5285;SDS011;2665;53.112;7.358;2023-06-04T10:58:14;2.50;;;0.90;;
5285;SDS011;2665;53.112;7.358;2023-06-04T11:00:44;5.00;;;0.80;;
5285;SDS011;2665;53.112;7.358;2023-06-04T11:03:14;2.00;;;0.90;;
5285;SDS011;2665;53.112;7.358;2023-06-04T11:05:44;2.17;;;0.90;;
5285;SDS011;2665;53.112;7.358;2023-06-04T11:08:11;2.70;;;1.27;;
5285;SDS011;2665;53.112;7.358;2023-06-04T11:10:42;6.10;;;1.43;;
5285;SDS011;2665;53.112;7.358;2023-06-04T11:13:09;2.80;;;1.00;;
5285;SDS011;2665;53.112;7.358;2023-06-04T11:15:39;2.87;;;1.13;;
5285;SDS011;2665;53.112;7.358;2023-06-04T11:18:05;5.10;;;1.30;;
5285;SDS011;2665;53.112;7.358;2023-06-04T11:20:30;1.90;;;0.90;;
5285;SDS011;2665;53.112;7.358;2023-06-04T11:22:57;2.40;;;1.10;;
5285;SDS011;2665;53.112;7.358;2023-06-04T11:25:24;2.60;;;1.00;;
5285;SDS011;2665;53.112;7.358;2023-06-04T11:27:51;2.20;;;1.20;;
5285;SDS011;2665;53.112;7.358;2023-06-04T11:30:18;1.93;;;0.87;;
5285;SDS011;2665;53.112;7.358;2023-06-04T11:32:44;2.20;;;0.93;;
5285;SDS011;2665;53.112;7.358;2023-06-04T11:35:10;2.03;;;0.80;;
5285;SDS011;2665;53.112;7.358;2023-06-04T11:37:38;1.70;;;0.90;;
5285;SDS011;2665;53.112;7.358;2023-06-04T11:40:14;2.10;;;0.90;;
5285;SDS011;2665;53.112;7.358;2023-06-04T11:42:42;2.70;;;0.83;;
5285;SDS011;2665;53.112;7.358;2023-06-04T11:45:09;2.70;;;0.97;;
5285;SDS011;2665;53.112;7.358;2023-06-04T11:47:38;2.57;;;1.10;;
5285;SDS011;2665;53.112;7.358;2023-06-04T11:50:04;2.40;;;1.10;;
5285;SDS011;2665;53.112;7.358;2023-06-04T11:52:31;3.50;;;0.80;;
5285;SDS011;2665;53.112;7.358;2023-06-04T11:54:58;2.23;;;0.90;;
5285;SDS011;2665;53.112;7.358;2023-06-04T11:57:24;1.93;;;1.03;;
5285;SDS011;2665;53.112;7.358;2023-06-04T11:59:50;2.93;;;2.13;;
5285;SDS011;2665;53.112;7.358;2023-06-04T12:02:16;4.33;;;0.97;;
5285;SDS011;2665;53.112;7.358;2023-06-04T12:04:41;3.60;;;1.33;;
5285;SDS011;2665;53.112;7.358;2023-06-04T12:07:07;3.50;;;1.10;;
5285;SDS011;2665;53.112;7.358;2023-06-04T12:09:34;2.60;;;0.87;;
5285;SDS011;2665;53.112;7.358;2023-06-04T12:12:01;1.90;;;0.80;;
5285;SDS011;2665;53.112;7.358;2023-06-04T12:14:28;2.93;;;1.07;;
5285;SDS011;2665;53.112;7.358;2023-06-04T12:16:57;4.83;;;0.90;;
5285;SDS011;2665;53.112;7.358;2023-06-04T12:19:24;2.50;;;0.90;;
5285;SDS011;2665;53.112;7.358;2023-06-04T12:22:06;1.90;;;0.80;;
5285;SDS011;2665;53.112;7.358;2023-06-04T12:24:33;1.97;;;0.90;;
5285;SDS011;2665;53.112;7.358;2023-06-04T12:29:28;1.87;;;0.90;;
5285;SDS011;2665;53.112;7.358;2023-06-04T12:32:01;2.53;;;0.80;;
5285;SDS011;2665;53.112;7.358;2023-06-04T12:34:33;1.87;;;0.80;;
5285;SDS011;2665;53.112;7.358;2023-06-04T12:37:05;2.07;;;0.80;;
5285;SDS011;2665;53.112;7.358;2023-06-04T12:39:36;1.77;;;0.83;;
5285;SDS011;2665;53.112;7.358;2023-06-04T12:42:02;2.80;;;1.07;;
5285;SDS011;2665;53.112;7.358;2023-06-04T12:44:28;2.37;;;0.93;;
5285;SDS011;2665;53.112;7.358;2023-06-04T12:46:54;2.43;;;1.00;;
5285;SDS011;2665;53.112;7.358;2023-06-04T12:49:19;1.80;;;0.90;;
5285;SDS011;2665;53.112;7.358;2023-06-04T12:51:46;2.20;;;1.07;;
5285;SDS011;2665;53.112;7.358;2023-06-04T12:54:11;2.60;;;0.90;;
5285;SDS011;2665;53.112;7.358;2023-06-04T12:56:38;4.87;;;1.10;;
5285;SDS011;2665;53.112;7.358;2023-06-04T12:59:06;1.60;;;0.67;;
5285;SDS011;2665;53.112;7.358;2023-06-04T13:01:31;2.20;;;0.90;;
5285;SDS011;2665;53.112;7.358;2023-06-04T13:03:57;1.60;;;0.97;;
5285;SDS011;2665;53.112;7.358;2023-06-04T13:06:23;2.00;;;1.07;;
5285;SDS011;2665;53.112;7.358;2023-06-04T13:08:48;3.33;;;1.23;;
5285;SDS011;2665;53.112;7.358;2023-06-04T13:11:14;2.53;;;1.03;;
5285;SDS011;2665;53.112;7.358;2023-06-04T13:13:40;2.20;;;1.00;;
5285;SDS011;2665;53.112;7.358;2023-06-04T13:16:07;2.77;;;1.27;;
5285;SDS011;2665;53.112;7.358;2023-06-04T13:18:33;2.10;;;1.10;;
5285;SDS011;2665;53.112;7.358;2023-06-04T13:20:59;1.90;;;1.00;;
5285;SDS011;2665;53.112;7.358;2023-06-04T13:23:24;2.00;;;1.03;;
5285;SDS011;2665;53.112;7.358;2023-06-04T13:25:50;2.37;;;0.70;;
5285;SDS011;2665;53.112;7.358;2023-06-04T13:28:16;2.43;;;1.30;;
5285;SDS011;2665;53.112;7.358;2023-06-04T13:30:42;4.17;;;1.10;;
5285;SDS011;2665;53.112;7.358;2023-06-04T13:33:08;1.60;;;0.80;;
5285;SDS011;2665;53.112;7.358;2023-06-04T13:35:34;2.43;;;0.90;;
5285;SDS011;2665;53.112;7.358;2023-06-04T13:38:00;1.73;;;0.90;;
5285;SDS011;2665;53.112;7.358;2023-06-04T13:40:27;3.23;;;1.20;;
5285;SDS011;2665;53.112;7.358;2023-06-04T13:42:53;2.90;;;1.40;;
5285;SDS011;2665;53.112;7.358;2023-06-04T13:45:18;3.33;;;1.33;;
5285;SDS011;2665;53.112;7.358;2023-06-04T13:47:45;3.23;;;1.30;;
5285;SDS011;2665;53.112;7.358;2023-06-04T13:50:13;2.10;;;0.90;;
5285;SDS011;2665;53.112;7.358;2023-06-04T13:52:39;2.40;;;1.17;;
5285;SDS011;2665;53.112;7.358;2023-06-04T13:55:05;3.63;;;1.13;;
5285;SDS011;2665;53.112;7.358;2023-06-04T13:57:31;3.70;;;0.80;;
5285;SDS011;2665;53.112;7.358;2023-06-04T13:59:57;2.80;;;1.10;;
5285;SDS011;2665;53.112;7.358;2023-06-04T14:02:22;2.67;;;0.93;;
5285;SDS011;2665;53.112;7.358;2023-06-04T14:04:49;2.07;;;0.93;;
5285;SDS011;2665;53.112;7.358;2023-06-04T14:07:16;5.40;;;1.30;;
5285;SDS011;2665;53.112;7.358;2023-06-04T14:09:42;3.20;;;1.40;;
5285;SDS011;2665;53.112;7.358;2023-06-04T14:12:08;2.40;;;0.97;;
5285;SDS011;2665;53.112;7.358;2023-06-04T14:14:34;3.30;;;1.00;;
5285;SDS011;2665;53.112;7.358;2023-06-04T14:17:02;1.80;;;0.87;;
5285;SDS011;2665;53.112;7.358;2023-06-04T14:19:29;3.73;;;1.37;;
5285;SDS011;2665;53.112;7.358;2023-06-04T14:21:54;2.47;;;1.30;;
5285;SDS011;2665;53.112;7.358;2023-06-04T14:24:20;2.97;;;0.90;;
5285;SDS011;2665;53.112;7.358;2023-06-04T14:26:46;3.93;;;1.20;;
5285;SDS011;2665;53.112;7.358;2023-06-04T14:29:12;2.87;;;0.90;;
5285;SDS011;2665;53.112;7.358;2023-06-04T14:31:38;1.60;;;0.80;;
5285;SDS011;2665;53.112;7.358;2023-06-04T14:34:04;2.20;;;1.20;;
5285;SDS011;2665;53.112;7.358;2023-06-04T14:36:31;3.17;;;0.90;;
5285;SDS011;2665;53.112;7.358;2023-06-04T14:38:57;1.90;;;1.07;;
5285;SDS011;2665;53.112;7.358;2023-06-04T14:41:22;2.67;;;1.00;;
5285;SDS011;2665;53.112;7.358;2023-06-04T14:43:48;2.00;;;1.20;;
5285;SDS011;2665;53.112;7.358;2023-06-04T14:46:13;2.73;;;0.90;;
5285;SDS011;2665;53.112;7.358;2023-06-04T14:48:39;3.10;;;1.00;;
5285;SDS011;2665;53.112;7.358;2023-06-04T14:51:04;2.33;;;1.10;;
5285;SDS011;2665;53.112;7.358;2023-06-04T14:53:30;3.50;;;1.33;;
5285;SDS011;2665;53.112;7.358;2023-06-04T14:55:56;4.90;;;1.00;;
5285;SDS011;2665;53.112;7.358;2023-06-04T14:58:22;4.20;;;1.37;;
5285;SDS011;2665;53.112;7.358;2023-06-04T15:00:47;2.13;;;1.23;;
5285;SDS011;2665;53.112;7.358;2023-06-04T15:03:13;3.00;;;1.10;;
5285;SDS011;2665;53.112;7.358;2023-06-04T15:05:38;3.00;;;1.03;;
5285;SDS011;2665;53.112;7.358;2023-06-04T15:08:04;1.93;;;0.93;;
5285;SDS011;2665;53.112;7.358;2023-06-04T15:10:30;1.60;;;0.73;;
5285;SDS011;2665;53.112;7.358;2023-06-04T15:12:56;4.70;;;1.40;;
5285;SDS011;2665;53.112;7.358;2023-06-04T15:15:22;3.70;;;1.37;;
5285;SDS011;2665;53.112;7.358;2023-06-04T15:17:48;2.20;;;1.00;;
5285;SDS011;2665;53.112;7.358;2023-06-04T15:20:14;2.40;;;1.03;;
5285;SDS011;2665;53.112;7.358;2023-06-04T15:22:40;2.53;;;0.97;;
5285;SDS011;2665;53.112;7.358;2023-06-04T15:25:05;3.83;;;1.30;;